Time;durP1;ratioP1;P1;durP2;ratioP2;P2;SDS_P1;SDS_P2;PMS_P1;PMS_P2;Temp;Humidity;BMP_temperature;BMP_pressure;BME280_temperature;BME280_humidity;BME280_pressure;Samples;Min_cycle;Max_cycle;Signal;HPM_P1;HPM_P2
2023/02/15 00:00:49;;;;;;;;;;;3.70;77.70;;;;;;9183650;19;20351;-63
2023/02/15 00:03:55;;;;;;;40.47;16.92;;;3.70;77.70;;;;;;9180007;19;19926;-63
2023/02/15 00:07:01;;;;;;;34.92;17.30;;;3.60;77.60;;;;;;9182862;19;20018;-63
2023/02/15 00:10:08;;;;;;;38.97;18.05;;;3.60;77.70;;;;;;9181433;19;20802;-63
2023/02/15 00:13:12;;;;;;;34.53;17.27;;;3.60;77.70;;;;;;9181801;19;20022;-63
2023/02/15 00:16:18;;;;;;;32.70;17.27;;;3.60;77.80;;;;;;9182303;19;20022;-64
2023/02/15 00:19:23;;;;;;;35.22;17.42;;;3.50;77.80;;;;;;9177160;19;20023;-63
2023/02/15 00:22:30;;;;;;;37.85;18.05;;;3.50;77.80;;;;;;9180597;19;20543;-63
2023/02/15 00:25:34;;;;;;;36.47;17.80;;;3.50;77.80;;;;;;9181797;19;20018;-63
2023/02/15 00:28:41;;;;;;;40.00;17.50;;;3.50;77.90;;;;;;9178680;19;20022;-65
2023/02/15 00:31:45;;;;;;;38.58;18.17;;;3.40;77.80;;;;;;9181784;19;20119;-62
2023/02/15 00:34:50;;;;;;;42.85;19.00;;;3.40;77.80;;;;;;9181735;19;20019;-63
2023/02/15 00:37:57;;;;;;;43.20;19.20;;;3.40;77.90;;;;;;9181078;19;20006;-62
2023/02/15 00:41:05;;;;;;;42.17;18.35;;;3.30;77.90;;;;;;9181279;19;20026;-62
2023/02/15 00:44:09;;;;;;;35.45;17.85;;;3.30;77.90;;;;;;9178751;19;20022;-62
2023/02/15 00:47:15;;;;;;;36.15;18.42;;;3.30;77.90;;;;;;9180824;19;20018;-62
2023/02/15 00:50:19;;;;;;;41.20;19.00;;;3.30;77.90;;;;;;9180425;19;20022;-63
2023/02/15 00:53:31;;;;;;;40.92;18.38;;;3.30;77.90;;;;;;9180132;19;20014;-65
2023/02/15 00:56:35;;;;;;;32.60;17.92;;;3.30;77.90;;;;;;9180590;19;20029;-62
2023/02/15 00:59:42;;;;;;;41.72;20.25;;;3.20;78.00;;;;;;9178974;19;20352;-64
2023/02/15 01:02:46;;;;;;;41.25;19.40;;;3.20;78.00;;;;;;9179580;19;20019;-62
2023/02/15 01:05:53;;;;;;;42.88;21.20;;;3.20;78.00;;;;;;9178959;19;20022;-63
2023/02/15 01:08:58;;;;;;;;;;;3.20;78.00;;;;;;9180411;19;20504;-62
2023/02/15 01:12:05;;;;;;;44.38;20.40;;;3.10;78.00;;;;;;9177023;19;20363;-64
2023/02/15 01:15:09;;;;;;;40.95;18.58;;;3.10;77.90;;;;;;9180467;19;20015;-60
2023/02/15 01:18:17;;;;;;;44.85;20.75;;;3.10;77.90;;;;;;9179864;19;20617;-62
2023/02/15 01:21:22;;;;;;;42.72;20.10;;;3.00;77.90;;;;;;9175238;19;20015;-64
2023/02/15 01:24:30;;;;;;;36.45;18.98;;;3.00;77.90;;;;;;9175861;19;20019;-62
2023/02/15 01:27:34;;;;;;;46.40;19.83;;;3.00;78.00;;;;;;9180063;19;20031;-64
2023/02/15 01:30:40;;;;;;;43.28;20.92;;;3.00;78.00;;;;;;9179373;19;20033;-63
2023/02/15 01:33:44;;;;;;;53.10;21.67;;;2.90;78.00;;;;;;9179364;19;20010;-65
2023/02/15 01:36:50;;;;;;;48.53;22.00;;;3.00;78.00;;;;;;9179202;19;20700;-62
2023/02/15 01:39:56;;;;;;;39.63;19.92;;;3.00;78.10;;;;;;9178371;19;20014;-64
2023/02/15 01:43:02;;;;;;;43.15;20.92;;;2.90;78.00;;;;;;9178213;19;20025;-63
2023/02/15 01:46:06;;;;;;;45.75;20.63;;;2.90;78.00;;;;;;9178945;19;20006;-63
2023/02/15 01:49:17;;;;;;;42.28;20.27;;;2.90;78.00;;;;;;9178960;19;20078;-63
2023/02/15 01:52:21;;;;;;;54.05;20.08;;;2.80;78.00;;;;;;9179022;19;20050;-64
2023/02/15 01:55:35;;;;;;;49.13;21.73;;;2.90;78.10;;;;;;9176807;19;20486;-63
2023/02/15 01:58:40;;;;;;;42.88;19.95;;;2.90;78.10;;;;;;9178319;19;20018;-64
2023/02/15 02:01:47;;;;;;;46.42;20.25;;;2.80;78.00;;;;;;9178488;19;20077;-63
2023/02/15 02:04:52;;;;;;;48.00;21.38;;;2.80;78.10;;;;;;9174316;19;20015;-63
2023/02/15 02:08:01;;;;;;;47.50;18.58;;;2.80;78.10;;;;;;9178761;19;20019;-62
2023/02/15 02:11:12;;;;;;;45.42;21.35;;;2.80;78.10;;;;;;9176066;19;20094;-61
2023/02/15 02:14:19;;;;;;;41.47;19.08;;;2.70;78.10;;;;;;9178044;19;20015;-62
2023/02/15 02:17:30;;;;;;;52.63;21.58;;;2.70;78.00;;;;;;9177835;19;20016;-61
2023/02/15 02:21:04;;;;;;;43.97;18.85;;;2.70;78.10;;;;;;9168296;19;20007;-63
2023/02/15 02:24:30;;;;;;;50.45;21.80;;;2.70;78.10;;;;;;9174549;19;20010;-62
2023/02/15 02:27:41;;;;;;;47.60;20.02;;;2.70;78.10;;;;;;9177156;19;20340;-63
2023/02/15 02:31:17;;;;;;;47.00;20.60;;;2.60;78.00;;;;;;9177534;19;20021;-63
2023/02/15 02:34:31;;;;;;;40.95;18.88;;;2.60;78.10;;;;;;9175768;19;20007;-63
2023/02/15 02:37:45;;;;;;;42.92;19.60;;;2.60;78.10;;;;;;9177080;19;20007;-63
2023/02/15 02:40:59;;;;;;;42.78;19.75;;;2.60;78.10;;;;;;9176352;19;20448;-64
2023/02/15 02:44:12;;;;;;;44.72;19.83;;;2.50;78.10;;;;;;9173882;19;20011;-62
2023/02/15 02:47:23;;;;;;;40.33;18.92;;;2.50;78.10;;;;;;9174828;19;20022;-63
2023/02/15 02:50:31;;;;;;;41.05;20.00;;;2.50;78.20;;;;;;9176039;19;20121;-63
2023/02/15 02:53:37;;;;;;;45.70;20.02;;;2.50;78.20;;;;;;9175746;19;20010;-62
2023/02/15 02:56:46;;;;;;;49.53;21.00;;;2.40;78.10;;;;;;9174326;19;20019;-62
2023/02/15 02:59:54;;;;;;;45.78;21.67;;;2.40;78.20;;;;;;9175927;19;20026;-62
2023/02/15 03:03:04;;;;;;;46.80;21.95;;;2.40;78.20;;;;;;9172590;19;20039;-62
2023/02/15 03:06:18;;;;;;;49.78;20.17;;;2.40;78.20;;;;;;9175367;19;20574;-63
2023/02/15 03:09:34;;;;;;;49.50;21.30;;;2.40;78.30;;;;;;9173515;19;20025;-63
2023/02/15 03:12:42;;;;;;;45.72;20.35;;;2.40;78.20;;;;;;9173712;19;20020;-63
2023/02/15 03:19:11;;;;;;;46.20;20.15;;;2.40;78.20;;;;;;9170783;19;20026;-63
2023/02/15 03:22:20;;;;;;;44.35;19.70;;;2.30;78.10;;;;;;9173106;19;20021;-63
2023/02/15 03:25:31;;;;;;;44.20;19.58;;;2.30;78.20;;;;;;9175044;19;20479;-63
2023/02/15 03:28:41;;;;;;;41.00;19.88;;;2.30;78.20;;;;;;9173731;19;20007;-62
2023/02/15 03:31:51;;;;;;;47.75;19.70;;;2.20;78.10;;;;;;9180795;19;20026;-62
2023/02/15 03:34:56;;;;;;;38.28;17.30;;;2.20;78.20;;;;;;9183109;19;20019;-63
2023/02/15 03:38:05;;;;;;;41.03;18.52;;;2.20;78.20;;;;;;9182883;19;20022;-63
2023/02/15 03:41:13;;;;;;;40.05;18.80;;;2.20;78.20;;;;;;9182497;19;20019;-62
2023/02/15 03:44:24;;;;;;;38.97;18.55;;;2.20;78.20;;;;;;9181026;19;20010;-62
2023/02/15 03:47:31;;;;;;;47.63;18.10;;;2.20;78.30;;;;;;9182355;19;20010;-63
2023/02/15 03:54:12;;;;;;;41.15;18.40;;;2.10;78.20;;;;;;9180042;19;20587;-62
2023/02/15 04:04:10;;;;;;;43.25;17.25;;;2.00;78.20;;;;;;9180392;19;20014;-62
2023/02/15 04:07:14;;;;;;;38.85;18.92;;;2.00;78.20;;;;;;9182549;19;20018;-63
2023/02/15 04:13:39;;;;;;;45.42;18.98;;;2.00;78.30;;;;;;9179129;19;20019;-61
2023/02/15 04:16:43;;;;;;;36.85;18.77;;;2.00;78.30;;;;;;9181803;19;20337;-63
2023/02/15 04:26:27;;;;;;;40.83;18.30;;;1.90;78.30;;;;;;9181534;19;20014;-62
2023/02/15 04:29:33;;;;;;;46.10;19.92;;;1.90;78.30;;;;;;9182104;19;20486;-63
2023/02/15 04:32:38;;;;;;;37.35;17.90;;;1.90;78.30;;;;;;9180675;19;20010;-62
2023/02/15 04:35:46;;;;;;;40.42;18.13;;;1.90;78.30;;;;;;9180590;19;20021;-62
2023/02/15 04:38:50;;;;;;;37.33;17.55;;;1.80;78.20;;;;;;9181059;19;20034;-62
2023/02/15 04:41:58;;;;;;;41.55;18.63;;;1.80;78.20;;;;;;9177312;19;20483;-64
2023/02/15 04:45:02;;;;;;;48.08;19.75;;;1.80;78.30;;;;;;9177624;19;20047;-62
2023/02/15 04:48:08;;;;;;;41.55;19.00;;;1.80;78.30;;;;;;9181009;19;20029;-62
2023/02/15 04:51:12;;;;;;;43.13;18.52;;;1.80;78.30;;;;;;9180074;19;20049;-62
2023/02/15 04:54:18;;;;;;;44.63;19.45;;;1.80;78.30;;;;;;9180124;19;20010;-61
2023/02/15 04:57:24;;;;;;;39.22;18.95;;;1.80;78.30;;;;;;9181101;19;20351;-63
2023/02/15 05:00:30;;;;;;;37.92;17.98;;;1.80;78.30;;;;;;9180650;19;20114;-65
2023/02/15 05:03:34;;;;;;;41.20;19.67;;;1.70;78.30;;;;;;9179433;19;20010;-61
2023/02/15 05:06:40;;;;;;;42.35;17.67;;;1.70;78.90;;;;;;9180570;19;20014;-61
2023/02/15 05:09:44;;;;;;;40.30;17.77;;;1.70;78.30;;;;;;9176882;19;20025;-62
2023/02/15 05:12:52;;;;;;;44.65;18.58;;;1.70;78.40;;;;;;9179888;19;20360;-62
2023/02/15 05:15:56;;;;;;;39.83;19.42;;;1.70;78.30;;;;;;9179564;19;20602;-63
2023/02/15 05:19:02;;;;;;;38.70;18.55;;;1.70;78.30;;;;;;9175833;19;20370;-63
2023/02/15 05:22:06;;;;;;;37.67;18.08;;;1.70;78.30;;;;;;9179081;19;20025;-63
2023/02/15 05:28:42;;;;;;;41.33;18.10;;;1.60;78.30;;;;;;9176904;19;20022;-61
2023/02/15 05:31:48;;;;;;;38.40;18.88;;;1.60;78.30;;;;;;9178838;19;20022;-63
2023/02/15 05:34:52;;;;;;;39.42;17.30;;;1.60;78.30;;;;;;9178713;19;20026;-62
2023/02/15 05:37:58;;;;;;;36.03;17.40;;;1.60;78.40;;;;;;9178825;19;20394;-63
2023/02/15 05:41:02;;;;;;;32.80;17.08;;;1.60;78.40;;;;;;9179015;19;20014;-64
2023/02/15 05:44:10;;;;;;;36.13;17.25;;;1.60;78.30;;;;;;9177267;19;20006;-61
2023/02/15 05:47:14;;;;;;;40.33;17.67;;;1.60;78.40;;;;;;9178753;19;20018;-61
2023/02/15 05:50:20;;;;;;;35.95;16.73;;;1.50;78.30;;;;;;9179559;19;20014;-63
2023/02/15 05:53:24;;;;;;;36.15;16.88;;;1.50;78.30;;;;;;9178831;19;20456;-63
2023/02/15 05:56:30;;;;;;;37.15;17.50;;;1.50;78.40;;;;;;9178873;19;20014;-63
2023/02/15 05:59:35;;;;;;;;;;;1.50;78.40;;;;;;9179807;19;20014;-63
2023/02/15 06:02:41;;;;;;;39.03;16.95;;;1.50;78.40;;;;;;9177724;19;20355;-63
2023/02/15 06:05:45;;;;;;;41.47;17.92;;;1.50;78.30;;;;;;9175626;19;20476;-62
2023/02/15 06:08:51;;;;;;;38.05;17.17;;;1.50;78.30;;;;;;9177982;19;20021;-63
2023/02/15 06:11:55;;;;;;;31.88;16.20;;;1.50;78.40;;;;;;9175972;19;20082;-63
2023/02/15 06:15:03;;;;;;;36.42;17.80;;;1.50;78.40;;;;;;9179560;19;20014;-66
2023/02/15 06:18:07;;;;;;;43.15;18.88;;;1.40;78.40;;;;;;9178641;19;20353;-63
2023/02/15 06:21:13;;;;;;;34.75;17.02;;;1.40;78.40;;;;;;9173550;19;20352;-62
2023/02/15 06:24:17;;;;;;;35.42;17.58;;;1.40;78.40;;;;;;9175676;19;20142;-62
2023/02/15 06:27:22;;;;;;;32.75;17.30;;;1.40;78.40;;;;;;9175475;19;20353;-63
2023/02/15 06:30:28;;;;;;;41.63;17.10;;;1.30;78.40;;;;;;9177175;19;20019;-63
2023/02/15 06:33:35;;;;;;;39.65;17.40;;;1.30;78.40;;;;;;9176926;19;20355;-62
2023/02/15 06:36:38;;;;;;;42.65;20.80;;;1.30;78.40;;;;;;9176767;19;20030;-62
2023/02/15 06:39:44;;;;;;;38.13;19.08;;;1.30;78.40;;;;;;9177094;19;20361;-62
2023/02/15 06:42:48;;;;;;;40.13;18.00;;;1.30;78.40;;;;;;9176361;19;20021;-63
2023/02/15 06:45:56;;;;;;;38.38;17.52;;;1.30;78.40;;;;;;9176971;19;20025;-62
2023/02/15 06:49:00;;;;;;;35.75;17.85;;;1.30;78.40;;;;;;9176635;19;20560;-62
2023/02/15 06:52:06;;;;;;;34.45;16.67;;;1.20;78.40;;;;;;9175907;19;20014;-63
2023/02/15 06:55:10;;;;;;;38.47;17.02;;;1.20;78.40;;;;;;9176942;19;20022;-63
2023/02/15 06:58:16;;;;;;;36.38;17.13;;;1.30;78.50;;;;;;9175834;19;20027;-62
2023/02/15 07:01:21;;;;;;;37.50;17.25;;;1.20;78.40;;;;;;9170378;19;20026;-63
2023/02/15 07:04:29;;;;;;;41.15;16.38;;;1.20;78.50;;;;;;9162659;19;20015;-62
2023/02/15 07:07:33;;;;;;;35.95;17.10;;;1.20;78.50;;;;;;9175279;19;20046;-62
2023/02/15 07:10:39;;;;;;;34.92;17.40;;;1.20;78.50;;;;;;9175865;19;20018;-61
2023/02/15 07:13:42;;;;;;;32.78;18.25;;;1.20;78.50;;;;;;9172584;19;20368;-65
2023/02/15 07:16:50;;;;;;;33.88;17.10;;;1.20;78.50;;;;;;9177703;19;20014;-64
2023/02/15 07:19:54;;;;;;;33.22;16.27;;;1.20;78.50;;;;;;9172710;19;20487;-63
2023/02/15 07:22:59;;;;;;;38.58;17.27;;;1.20;78.50;;;;;;9174717;19;20014;-64
2023/02/15 07:26:03;;;;;;;42.75;17.92;;;1.20;78.50;;;;;;9176528;19;20018;-64
2023/02/15 07:29:09;;;;;;;35.08;16.75;;;1.20;78.50;;;;;;9177151;19;20054;-63
2023/02/15 07:32:15;;;;;;;40.25;18.50;;;1.20;78.60;;;;;;9176807;19;20014;-63
2023/02/15 07:35:21;;;;;;;38.20;17.15;;;1.20;78.60;;;;;;9180430;19;20602;-63
2023/02/15 07:38:27;;;;;;;37.67;17.15;;;1.20;78.60;;;;;;9181936;19;20026;-61
2023/02/15 07:41:33;;;;;;;37.83;19.08;;;1.20;78.60;;;;;;9182347;19;20013;-62
2023/02/15 07:44:37;;;;;;;41.50;18.75;;;1.20;78.60;;;;;;9181314;19;20502;-65
2023/02/15 07:47:44;;;;;;;37.95;17.38;;;1.20;78.60;;;;;;9182787;19;20490;-63
2023/02/15 07:50:48;;;;;;;36.25;17.70;;;1.20;78.60;;;;;;9182289;19;20025;-64
2023/02/15 07:53:55;;;;;;;39.25;17.83;;;1.20;78.70;;;;;;9182056;19;20018;-64
2023/02/15 07:56:58;;;;;;;43.47;18.80;;;1.20;78.70;;;;;;9180728;19;20029;-63
2023/02/15 08:00:05;;;;;;;36.80;17.75;;;1.30;78.70;;;;;;9176584;19;20011;-64
2023/02/15 08:03:17;;;;;;;44.85;20.05;;;1.30;78.80;;;;;;9179747;19;20014;-62
2023/02/15 08:06:24;;;;;;;42.75;20.23;;;1.30;78.80;;;;;;9180246;19;20021;-64
2023/02/15 08:09:28;;;;;;;46.80;19.77;;;1.30;78.80;;;;;;9174710;19;20578;-62
2023/02/15 08:12:34;;;;;;;49.75;21.13;;;1.40;78.90;;;;;;9171601;19;20014;-63
2023/02/15 08:15:38;;;;;;;49.20;21.65;;;1.40;78.90;;;;;;9171064;19;20170;-63
2023/02/15 08:18:46;;;;;;;54.13;23.88;;;1.50;79.00;;;;;;9168148;19;20015;-64
2023/02/15 08:21:51;;;;;;;63.35;24.23;;;1.60;79.10;;;;;;9179206;19;20022;-64
2023/02/15 08:24:57;;;;;;;62.10;24.23;;;1.60;79.20;;;;;;9170765;19;20014;-64
2023/02/15 08:28:01;;;;;;;58.47;26.67;;;1.70;79.30;;;;;;9181226;19;20019;-65
2023/02/15 08:31:08;;;;;;;70.30;27.42;;;1.80;79.40;;;;;;9181783;19;20492;-63
2023/02/15 08:34:18;;;;;;;75.20;29.20;;;2.00;79.60;;;;;;9180160;19;20089;-65
2023/02/15 08:37:25;;;;;;;80.47;29.90;;;2.10;79.70;;;;;;9179111;19;20014;-65
2023/02/15 08:40:29;;;;;;;83.43;29.85;;;2.30;79.80;;;;;;9179233;19;20085;-64
2023/02/15 08:43:35;;;;;;;76.75;31.27;;;2.50;79.90;;;;;;9179779;19;20015;-65
2023/02/15 08:46:41;;;;;;;87.28;30.75;;;2.70;80.10;;;;;;9180893;19;20026;-65
2023/02/15 08:49:49;;;;;;;88.10;31.10;;;2.90;80.20;;;;;;9180053;19;20054;-64
2023/02/15 08:52:52;;;;;;;101.78;34.83;;;3.10;80.30;;;;;;9172989;19;20015;-65
2023/02/15 08:55:59;;;;;;;110.68;36.08;;;3.30;80.50;;;;;;9175644;19;20494;-65
2023/02/15 08:59:03;;;;;;;106.38;36.47;;;3.50;80.40;;;;;;9174361;19;20014;-65
2023/02/15 09:02:12;;;;;;;95.25;35.58;;;3.70;80.50;;;;;;9177686;19;20022;-65
2023/02/15 09:05:18;;;;;;;90.25;34.58;;;4.00;80.60;;;;;;9169003;19;20436;-64
2023/02/15 09:08:23;;;;;;;72.93;31.38;;;4.30;80.70;;;;;;9159444;19;20011;-64
2023/02/15 09:11:28;;;;;;;;;;;4.50;80.70;;;;;;9166289;19;20019;-65
2023/02/15 09:14:35;;;;;;;64.63;28.65;;;4.70;80.60;;;;;;9167639;19;19926;-64
2023/02/15 09:17:39;;;;;;;72.10;27.77;;;5.00;80.50;;;;;;9171034;19;20488;-64
2023/02/15 09:20:47;;;;;;;70.53;28.15;;;5.20;80.50;;;;;;9164727;19;20668;-65
2023/02/15 09:23:54;;;;;;;64.95;25.30;;;5.40;80.50;;;;;;9167694;19;20785;-65
2023/02/15 09:26:59;;;;;;;55.42;24.92;;;5.60;80.50;;;;;;9167678;19;20014;-65
2023/02/15 09:30:03;;;;;;;;;;;5.70;80.40;;;;;;9172748;19;20014;-65
2023/02/15 09:33:09;;;;;;;53.83;22.83;;;5.90;80.30;;;;;;9169729;19;19923;-65
2023/02/15 09:36:19;;;;;;;;;;;6.10;80.30;;;;;;9167961;19;20025;-64
2023/02/15 09:39:26;;;;;;;52.28;24.27;;;6.30;80.20;;;;;;9160291;19;19919;-65
2023/02/15 09:42:44;;;;;;;63.90;25.02;;;6.40;80.10;;;;;;9171083;19;20506;-65
2023/02/15 09:46:10;;;;;;;53.85;23.75;;;6.60;80.20;;;;;;9169745;19;20011;-65
2023/02/15 09:49:25;;;;;;;50.10;24.33;;;6.80;80.30;;;;;;9174598;19;20018;-65
2023/02/15 09:52:48;;;;;;;51.60;23.60;;;7.00;80.30;;;;;;9172112;19;20018;-66
2023/02/15 09:56:00;;;;;;;48.90;23.38;;;7.20;80.30;;;;;;9173286;19;20070;-65
2023/02/15 09:59:16;;;;;;;52.33;25.30;;;7.50;80.20;;;;;;9171950;19;20471;-66
2023/02/15 10:02:35;;;;;;;59.03;24.77;;;7.70;80.20;;;;;;9168187;19;20050;-65
2023/02/15 10:05:49;;;;;;;50.35;25.40;;;7.90;80.10;;;;;;9162895;19;20030;-65
2023/02/15 10:09:27;;;;;;;61.38;25.90;;;8.10;80.10;;;;;;9175647;19;20015;-65
2023/02/15 10:12:51;;;;;;;54.90;25.52;;;8.30;79.90;;;;;;9168375;19;20033;-65
2023/02/15 10:16:12;;;;;;;53.05;23.25;;;8.50;79.90;;;;;;9175464;19;20511;-65
2023/02/15 10:19:25;;;;;;;55.50;23.05;;;8.70;79.80;;;;;;9172424;19;20010;-66
2023/02/15 10:22:42;;;;;;;52.63;24.90;;;8.90;79.70;;;;;;9171532;19;20022;-67
2023/02/15 10:25:56;;;;;;;45.17;22.63;;;9.10;79.50;;;;;;9167888;19;20017;-66
2023/02/15 10:29:08;;;;;;;51.00;23.15;;;9.20;79.50;;;;;;9170975;19;20014;-66
2023/02/15 10:32:24;;;;;;;51.10;22.42;;;9.40;79.40;;;;;;9169868;19;20022;-66
2023/02/15 10:35:36;;;;;;;54.78;22.10;;;9.50;79.30;;;;;;9170653;19;20014;-64
2023/02/15 10:38:49;;;;;;;40.90;16.35;;;9.70;79.30;;;;;;9172421;19;20014;-66
2023/02/15 10:42:05;;;;;;;46.00;22.65;;;9.80;79.20;;;;;;9168558;19;20025;-65
2023/02/15 10:45:24;;;;;;;46.30;21.55;;;10.00;79.00;;;;;;9165927;19;20385;-66
2023/02/15 10:48:43;;;;;;;44.70;22.50;;;10.10;78.90;;;;;;9159247;19;20023;-65
2023/02/15 10:52:03;;;;;;;51.53;22.95;;;10.20;78.80;;;;;;9162744;19;20015;-66
2023/02/15 10:55:14;;;;;;;49.53;21.40;;;10.30;78.80;;;;;;9164697;19;20486;-65
2023/02/15 10:58:33;;;;;;;50.38;21.58;;;10.40;78.70;;;;;;9171483;19;20014;-66
2023/02/15 11:01:43;;;;;;;49.95;21.88;;;10.50;78.70;;;;;;9172136;19;20400;-65
2023/02/15 11:04:58;;;;;;;44.22;20.70;;;10.70;78.60;;;;;;9173347;19;20022;-64
2023/02/15 11:08:07;;;;;;;47.15;21.95;;;10.80;78.40;;;;;;9174653;19;20336;-66
2023/02/15 11:11:18;;;;;;;44.15;20.58;;;10.80;78.30;;;;;;9167448;19;20022;-66
2023/02/15 11:14:34;;;;;;;46.20;21.05;;;10.90;78.20;;;;;;9173329;19;20345;-66
2023/02/15 11:17:45;;;;;;;51.17;21.10;;;11.00;78.70;;;;;;9170051;19;20010;-65
2023/02/15 11:20:55;;;;;;;48.22;21.52;;;11.20;78.10;;;;;;9167311;19;20027;-66
2023/02/15 11:24:02;;;;;;;48.85;21.80;;;11.20;77.80;;;;;;9171315;19;20029;-66
2023/02/15 11:27:18;;;;;;;44.60;21.60;;;11.30;77.80;;;;;;9168844;19;20034;-66
2023/02/15 11:30:29;;;;;;;48.70;21.95;;;11.40;77.70;;;;;;9174088;19;20018;-66
2023/02/15 11:33:38;;;;;;;46.65;21.60;;;11.50;77.60;;;;;;9173293;19;20032;-66
2023/02/15 11:36:47;;;;;;;45.03;21.15;;;11.60;77.60;;;;;;9168296;19;20014;-66
2023/02/15 11:39:54;;;;;;;44.60;21.55;;;11.60;77.40;;;;;;9165545;19;20022;-66
2023/02/15 11:43:06;;;;;;;45.70;21.10;;;11.70;77.30;;;;;;9161290;19;20010;-66
2023/02/15 11:46:14;;;;;;;49.35;21.27;;;11.80;77.20;;;;;;9155701;19;20018;-66
2023/02/15 11:49:27;;;;;;;53.70;22.20;;;11.90;77.20;;;;;;9167196;19;20015;-66
2023/02/15 11:52:31;;;;;;;49.38;21.65;;;11.90;77.00;;;;;;9172641;19;20018;-64
2023/02/15 11:55:37;;;;;;;57.65;20.85;;;12.00;77.00;;;;;;9172117;19;20480;-66
2023/02/15 11:58:45;;;;;;;49.22;20.17;;;12.10;76.90;;;;;;9168571;19;20601;-67
2023/02/15 12:01:53;;;;;;;47.03;21.38;;;12.20;76.90;;;;;;9169468;19;20484;-66
2023/02/15 12:05:00;;;;;;;51.80;20.95;;;12.30;76.70;;;;;;9166529;19;20420;-66
2023/02/15 12:08:14;;;;;;;43.90;20.50;;;12.30;76.50;;;;;;9173929;19;20602;-64
2023/02/15 12:11:23;;;;;;;49.60;21.33;;;12.40;76.40;;;;;;9166622;19;20431;-66
2023/02/15 12:14:50;;;;;;;50.83;20.83;;;12.40;76.30;;;;;;9173164;19;20608;-67
2023/02/15 12:17:56;;;;;;;49.70;20.30;;;12.50;76.10;;;;;;9175300;19;20475;-66
2023/02/15 12:21:05;;;;;;;44.88;20.70;;;12.50;76.20;;;;;;9173603;19;20014;-66
2023/02/15 12:24:19;;;;;;;49.50;20.45;;;12.50;76.10;;;;;;9179251;19;20018;-66
2023/02/15 12:27:29;;;;;;;51.50;21.50;;;12.50;75.90;;;;;;9176651;19;20014;-66
2023/02/15 12:30:36;;;;;;;46.67;19.13;;;12.60;76.00;;;;;;9178193;19;20019;-66
2023/02/15 12:33:45;;;;;;;48.58;18.42;;;12.60;76.00;;;;;;9178612;19;20356;-64
2023/02/15 12:36:54;;;;;;;52.00;17.88;;;12.60;75.80;;;;;;9179456;19;20029;-65
2023/02/15 12:40:01;;;;;;;46.53;16.85;;;12.60;75.70;;;;;;9174506;19;20022;-67
2023/02/15 12:43:08;;;;;;;52.95;18.08;;;12.60;75.60;;;;;;9176102;19;21528;-66
2023/02/15 12:46:24;;;;;;;45.05;18.35;;;12.60;75.50;;;;;;9172492;19;20105;-66
2023/02/15 12:49:31;;;;;;;48.60;19.13;;;12.70;75.30;;;;;;9169448;19;20495;-66
2023/02/15 12:52:37;;;;;;;48.20;18.48;;;12.70;75.40;;;;;;9174119;19;20021;-66
2023/02/15 12:55:50;;;;;;;50.35;19.83;;;12.70;75.40;;;;;;9174899;19;20026;-66
2023/02/15 12:59:07;;;;;;;45.83;19.13;;;12.80;75.40;;;;;;9171896;19;20108;-66
2023/02/15 13:02:17;;;;;;;;;;;12.80;75.10;;;;;;9176248;19;20020;-66
2023/02/15 13:05:31;;;;;;;45.55;17.65;;;12.80;75.30;;;;;;9170918;19;19914;-66
2023/02/15 13:08:37;;;;;;;42.42;17.25;;;12.80;75.20;;;;;;9171886;19;20022;-66
2023/02/15 13:11:45;;;;;;;43.05;17.95;;;12.80;75.10;;;;;;9170577;19;20014;-66
2023/02/15 13:14:54;;;;;;;44.03;17.45;;;12.80;75.00;;;;;;9173096;19;20023;-65
2023/02/15 13:18:01;;;;;;;58.63;19.30;;;12.80;74.90;;;;;;9178504;19;20018;-66
2023/02/15 13:21:14;;;;;;;45.88;18.48;;;12.80;74.80;;;;;;9169358;19;20054;-66
2023/02/15 13:24:25;;;;;;;44.33;19.10;;;12.80;74.70;;;;;;9175905;19;20030;-65
2023/02/15 13:27:37;;;;;;;51.28;18.48;;;12.70;74.70;;;;;;9177167;19;20014;-66
2023/02/15 13:30:47;;;;;;;50.13;19.10;;;12.80;74.60;;;;;;9166992;19;20011;-66
2023/02/15 13:33:55;;;;;;;49.38;18.40;;;12.70;74.60;;;;;;9162931;19;20114;-66
2023/02/15 13:37:13;;;;;;;50.13;18.25;;;12.80;74.50;;;;;;9165510;19;20034;-66
2023/02/15 13:40:24;;;;;;;43.40;18.05;;;12.80;74.40;;;;;;9169003;19;20021;-67
2023/02/15 13:43:39;;;;;;;47.28;18.40;;;12.70;74.40;;;;;;9162832;19;20013;-66
2023/02/15 13:46:54;;;;;;;41.38;17.42;;;12.80;74.40;;;;;;9163417;19;20018;-66
2023/02/15 13:50:23;;;;;;;47.88;19.33;;;12.80;74.30;;;;;;9166107;19;20676;-66
2023/02/15 13:53:58;;;;;;;42.40;17.92;;;12.70;74.10;;;;;;9165747;19;20485;-66
2023/02/15 13:57:32;;;;;;;42.03;17.92;;;12.70;74.10;;;;;;9162509;19;20028;-66
2023/02/15 14:00:49;;;;;;;48.22;18.33;;;12.70;74.10;;;;;;9170494;19;20083;-65
2023/02/15 14:04:25;;;;;;;46.53;18.77;;;12.70;74.10;;;;;;9170072;19;20641;-66
2023/02/15 14:07:40;;;;;;;40.15;16.20;;;12.70;74.10;;;;;;9170603;19;20039;-66
2023/02/15 14:10:53;;;;;;;46.78;18.60;;;12.70;74.10;;;;;;9168721;19;20027;-65
2023/02/15 14:14:17;;;;;;;47.42;19.15;;;12.70;74.10;;;;;;9169790;19;20778;-65
2023/02/15 14:17:30;;;;;;;39.45;17.88;;;12.70;73.90;;;;;;9168101;19;20014;-65
2023/02/15 14:20:45;;;;;;;41.17;17.60;;;12.70;74.00;;;;;;9165280;19;20014;-66
2023/02/15 14:24:08;;;;;;;46.28;18.60;;;12.70;73.90;;;;;;9169638;19;20379;-65
2023/02/15 14:27:25;;;;;;;50.55;19.75;;;12.70;73.80;;;;;;9168593;19;20024;-66
2023/02/15 14:30:36;;;;;;;37.75;16.58;;;12.70;73.80;;;;;;9165339;19;20794;-66
2023/02/15 14:33:42;;;;;;;47.13;18.42;;;12.70;73.80;;;;;;9159647;19;20025;-66
2023/02/15 14:36:48;;;;;;;43.28;17.92;;;12.70;73.80;;;;;;9162537;19;20022;-66
2023/02/15 14:43:29;;;;;;;45.00;18.63;;;12.70;73.60;;;;;;9161805;19;20049;-66
2023/02/15 14:46:40;;;;;;;51.08;18.65;;;12.60;73.60;;;;;;9160172;19;20086;-65
2023/02/15 14:49:46;;;;;;;44.78;18.70;;;12.60;73.60;;;;;;9162156;19;20360;-65
2023/02/15 14:53:18;;;;;;;43.78;18.63;;;12.70;73.70;;;;;;9161820;19;20022;-65
2023/02/15 14:56:28;;;;;;;45.30;18.77;;;12.60;73.40;;;;;;9161224;19;20483;-66
2023/02/15 14:59:40;;;;;;;47.80;19.73;;;12.60;73.60;;;;;;9161895;19;20085;-66
2023/02/15 15:02:52;;;;;;;43.15;18.60;;;12.60;73.40;;;;;;9159572;19;20467;-66
2023/02/15 15:05:59;;;;;;;41.95;18.83;;;12.60;73.50;;;;;;9158004;19;20054;-66
2023/02/15 15:09:14;;;;;;;44.08;18.17;;;12.60;73.50;;;;;;9164873;19;20014;-65
2023/02/15 15:12:41;;;;;;;40.72;16.85;;;12.60;73.40;;;;;;9159690;19;20619;-66
2023/02/15 15:15:48;;;;;;;42.70;18.02;;;12.60;73.30;;;;;;9166665;19;20021;-65
2023/02/15 15:18:54;;;;;;;44.42;17.27;;;12.60;73.50;;;;;;9161030;19;20085;-70
2023/02/15 15:22:05;;;;;;;41.97;17.98;;;12.60;73.40;;;;;;9161361;19;20135;-67
2023/02/15 15:25:29;;;;;;;44.65;17.70;;;12.60;73.40;;;;;;9162697;19;20011;-68
2023/02/15 15:29:00;;;;;;;44.58;16.77;;;12.50;73.30;;;;;;9168975;19;20574;-70
2023/02/15 15:32:05;;;;;;;48.80;19.25;;;12.50;73.20;;;;;;9170491;19;20023;-65
2023/02/15 15:35:25;;;;;;;48.65;20.92;;;12.50;73.40;;;;;;9168674;19;20018;-65
2023/02/15 15:38:43;;;;;;;43.95;19.52;;;12.50;73.10;;;;;;9165559;19;20029;-65
2023/02/15 15:41:55;;;;;;;50.40;19.10;;;12.50;73.10;;;;;;9170392;19;20019;-66
2023/02/15 15:45:34;;;;;;;44.10;19.35;;;12.50;73.20;;;;;;9173056;19;20522;-65
2023/02/15 15:48:42;;;;;;;46.63;20.00;;;12.40;73.00;;;;;;9174885;19;20034;-66
2023/02/15 15:51:50;;;;;;;48.10;20.65;;;12.40;73.20;;;;;;9174240;19;20038;-66
2023/02/15 15:54:59;;;;;;;41.08;19.10;;;12.40;73.10;;;;;;9172622;19;20018;-65
2023/02/15 15:58:07;;;;;;;43.85;18.42;;;12.30;73.10;;;;;;9172289;19;20026;-65
2023/02/15 16:01:13;;;;;;;40.53;18.63;;;12.30;73.10;;;;;;9172670;19;20698;-65
2023/02/15 16:04:26;;;;;;;37.40;18.02;;;12.30;73.10;;;;;;9170597;19;20015;-65
2023/02/15 16:07:34;;;;;;;38.85;18.60;;;12.20;73.00;;;;;;9171028;19;20010;-66
2023/02/15 16:10:38;;;;;;;47.17;19.70;;;12.20;73.20;;;;;;9172114;19;20022;-65
2023/02/15 16:13:45;;;;;;;39.22;19.75;;;12.10;73.10;;;;;;9166891;19;20045;-65
2023/02/15 16:16:52;;;;;;;45.75;20.55;;;12.10;73.20;;;;;;9167435;19;20021;-67
2023/02/15 16:20:03;;;;;;;42.17;19.90;;;12.00;73.00;;;;;;9164143;19;20038;-65
2023/02/15 16:23:24;;;;;;;38.85;18.30;;;12.00;73.00;;;;;;9167911;19;20018;-65
2023/02/15 16:26:51;;;;;;;32.75;13.35;;;11.90;73.00;;;;;;9164845;19;20011;-65
2023/02/15 16:29:54;;;;;;;;;;;11.90;73.10;;;;;;9165682;19;20384;-66
2023/02/15 16:33:08;;;;;;;38.92;19.10;;;11.80;73.20;;;;;;9167911;19;19918;-62
2023/02/15 16:36:13;;;;;;;45.45;19.45;;;11.80;73.20;;;;;;9164651;19;20015;-65
2023/02/15 16:39:22;;;;;;;38.95;18.33;;;11.70;73.20;;;;;;9167802;19;20014;-65
2023/02/15 16:42:26;;;;;;;45.55;20.20;;;11.70;73.20;;;;;;9158581;19;20014;-65